National Weather Service Raw Text Product

Displaying AFOS PIL: TAFDSM Received: 2018-01-12 17:42 UTC


049 
FTUS43 KDMX 121742
TAFDSM
TAF
KDSM 121742Z 1218/1318 35012KT P6SM FEW250
     FM122300 36009KT P6SM BKN190
     FM131300 35007KT P6SM SCT080=